createdAt,value
2022-09-12T00:01:45.058Z,24.50
2022-09-12T00:04:15.330Z,21.90
2022-09-12T00:06:42.949Z,21.63
2022-09-12T00:09:14.123Z,22.17
2022-09-12T00:11:45.096Z,23.17
2022-09-12T00:14:17.097Z,20.60
2022-09-12T00:16:45.386Z,19.75
2022-09-12T00:19:13.546Z,21.42
2022-09-12T00:21:44.185Z,22.65
2022-09-12T00:24:16.062Z,21.02
2022-09-12T00:26:43.729Z,22.35
2022-09-12T00:29:21.527Z,23.30
2022-09-12T00:31:49.617Z,22.98
2022-09-12T00:34:19.035Z,23.20
2022-09-12T00:36:46.814Z,23.70
2022-09-12T00:39:17.929Z,21.58
2022-09-12T00:41:46.487Z,21.02
2022-09-12T00:44:26.298Z,22.80
2022-09-12T00:47:13.351Z,22.67
2022-09-12T00:49:54.730Z,24.40
2022-09-12T00:52:28.918Z,23.05
2022-09-12T00:55:07.952Z,22.52
2022-09-12T00:57:45.224Z,25.25
2022-09-12T01:00:23.152Z,25.08
2022-09-12T01:02:54.976Z,27.10
2022-09-12T01:05:31.650Z,27.60
2022-09-12T01:08:06.323Z,27.10
2022-09-12T01:10:37.454Z,28.10
2022-09-12T01:13:08.117Z,27.58
2022-09-12T01:18:26.149Z,29.85
2022-09-12T01:21:06.251Z,30.42
2022-09-12T01:23:54.243Z,31.30
2022-09-12T01:26:47.829Z,29.88
2022-09-12T01:29:56.673Z,30.83
2022-09-12T01:32:47.377Z,33.83
2022-09-12T01:38:00.172Z,30.75
2022-09-12T01:40:53.223Z,32.10
2022-09-12T01:43:58.294Z,31.65
2022-09-12T01:46:55.978Z,28.85
2022-09-12T01:49:30.630Z,29.02
2022-09-12T01:52:19.927Z,32.13
2022-09-12T01:55:19.675Z,26.75
2022-09-12T01:57:56.547Z,29.63
2022-09-12T02:00:24.762Z,30.35
2022-09-12T02:02:55.494Z,28.02
2022-09-12T02:05:35.108Z,31.42
2022-09-12T02:08:28.896Z,26.80
2022-09-12T02:11:07.742Z,27.48
2022-09-12T02:13:45.179Z,26.25
2022-09-12T02:16:18.681Z,25.75
2022-09-12T02:18:58.947Z,22.45
2022-09-12T02:21:32.964Z,28.20
2022-09-12T02:24:07.088Z,22.73
2022-09-12T02:26:39.977Z,23.25
2022-09-12T02:29:10.504Z,23.33
2022-09-12T02:32:04.902Z,20.83
2022-09-12T02:34:43.447Z,22.40
2022-09-12T02:37:21.260Z,20.45
2022-09-12T02:39:49.491Z,22.83
2022-09-12T02:42:18.985Z,19.02
2022-09-12T02:44:48.287Z,21.20
2022-09-12T02:47:34.593Z,19.08
2022-09-12T02:50:08.274Z,18.75
2022-09-12T02:52:39.767Z,17.27
2022-09-12T02:55:14.384Z,19.58
2022-09-12T02:57:51.688Z,18.23
2022-09-12T03:01:00.231Z,18.88
2022-09-12T03:04:36.041Z,21.45
2022-09-12T03:07:24.213Z,21.02
2022-09-12T03:10:22.459Z,19.40
2022-09-12T03:13:18.700Z,18.63
2022-09-12T03:16:07.261Z,18.17
2022-09-12T03:19:01.540Z,19.33
2022-09-12T03:21:57.083Z,20.85
2022-09-12T03:25:05.541Z,19.48
2022-09-12T03:27:54.668Z,17.80
2022-09-12T03:30:27.105Z,17.65
2022-09-12T03:32:57.267Z,18.52
2022-09-12T03:35:27.188Z,18.92
2022-09-12T03:37:55.658Z,22.63
2022-09-12T03:40:24.009Z,19.83
2022-09-12T03:42:58.593Z,19.70
2022-09-12T03:45:30.165Z,18.88
2022-09-12T03:48:01.538Z,18.48
2022-09-12T03:50:34.171Z,18.88
2022-09-12T03:53:03.292Z,20.50
2022-09-12T03:55:34.967Z,15.10
2022-09-12T03:58:07.697Z,17.17
2022-09-12T04:00:43.959Z,19.35
2022-09-12T04:03:19.369Z,19.90
2022-09-12T04:05:50.924Z,17.88
2022-09-12T04:08:19.587Z,19.08
2022-09-12T04:10:48.542Z,20.27
2022-09-12T04:13:16.714Z,18.05
2022-09-12T04:15:56.159Z,21.40
2022-09-12T04:18:28.279Z,20.05
2022-09-12T04:20:56.397Z,24.85
2022-09-12T04:23:28.852Z,22.63
2022-09-12T04:26:04.507Z,19.90
2022-09-12T04:31:21.621Z,17.17
2022-09-12T04:34:01.567Z,16.88
2022-09-12T04:36:38.793Z,18.02
2022-09-12T04:39:18.501Z,17.35
2022-09-12T04:41:55.821Z,21.53
2022-09-12T04:44:41.735Z,23.52
2022-09-12T04:47:13.283Z,17.30
2022-09-12T04:49:48.630Z,15.15
2022-09-12T04:52:23.149Z,19.02
2022-09-12T04:55:04.843Z,18.58
2022-09-12T04:58:12.037Z,15.35
2022-09-12T05:00:56.603Z,26.13
2022-09-12T05:03:32.138Z,18.20
2022-09-12T05:06:11.581Z,22.30
2022-09-12T05:08:52.052Z,19.05
2022-09-12T05:11:59.726Z,20.45
2022-09-12T05:14:23.478Z,19.00
2022-09-12T05:17:06.492Z,17.80
2022-09-12T05:19:40.401Z,17.58
2022-09-12T05:22:08.099Z,17.60
2022-09-12T05:24:48.519Z,18.05
2022-09-12T05:27:18.561Z,19.05
2022-09-12T05:29:46.518Z,18.35
2022-09-12T05:32:22.684Z,19.35
2022-09-12T05:34:50.967Z,17.15
2022-09-12T05:37:23.345Z,18.30
2022-09-12T05:39:52.338Z,20.20
2022-09-12T05:42:21.158Z,16.02
2022-09-12T05:44:54.482Z,17.40
2022-09-12T05:47:22.247Z,15.43
2022-09-12T05:49:52.393Z,15.02
2022-09-12T05:52:20.438Z,19.88
2022-09-12T05:54:48.675Z,15.95
2022-09-12T05:57:16.450Z,15.00
2022-09-12T05:59:45.006Z,13.70
2022-09-12T06:02:16.128Z,14.93
2022-09-12T06:04:43.884Z,13.80
2022-09-12T06:07:14.871Z,16.15
2022-09-12T06:09:45.137Z,12.85
2022-09-12T06:12:16.903Z,14.45
2022-09-12T06:14:52.497Z,15.02
2022-09-12T06:17:20.754Z,13.23
2022-09-12T06:19:50.849Z,10.30
2022-09-12T06:22:19.295Z,15.85
2022-09-12T06:24:47.222Z,12.05
2022-09-12T06:27:15.418Z,12.82
2022-09-12T06:29:43.476Z,12.90
2022-09-12T06:32:11.714Z,9.18
2022-09-12T06:34:39.434Z,10.85
2022-09-12T06:37:07.114Z,10.40
2022-09-12T06:39:36.643Z,11.75
2022-09-12T06:42:04.463Z,9.43
2022-09-12T06:44:35.327Z,12.25
2022-09-12T06:47:03.031Z,8.73
2022-09-12T06:49:31.746Z,6.90
2022-09-12T06:51:59.560Z,6.50
2022-09-12T06:54:27.189Z,13.05
2022-09-12T06:56:54.826Z,10.18
2022-09-12T06:59:23.552Z,7.93
2022-09-12T07:01:51.536Z,7.05
2022-09-12T07:04:20.797Z,12.10
2022-09-12T07:06:49.002Z,8.68
2022-09-12T07:09:17.136Z,9.15
2022-09-12T07:11:45.840Z,6.47
2022-09-12T07:14:14.819Z,7.40
2022-09-12T07:16:42.875Z,7.22
2022-09-12T07:19:11.595Z,8.60
2022-09-12T07:21:42.586Z,7.22
2022-09-12T07:24:10.968Z,10.50
2022-09-12T07:26:40.602Z,7.47
2022-09-12T07:29:35.994Z,10.77
2022-09-12T07:32:07.307Z,6.63
2022-09-12T07:34:36.481Z,9.32
2022-09-12T07:37:04.623Z,9.50
2022-09-12T07:39:32.560Z,10.88
2022-09-12T07:42:00.596Z,9.82
2022-09-12T07:44:29.910Z,11.90
2022-09-12T07:46:57.754Z,8.25
2022-09-12T07:49:28.997Z,10.18
2022-09-12T07:51:57.310Z,4.78
2022-09-12T07:54:27.934Z,9.43
2022-09-12T07:56:55.806Z,9.07
2022-09-12T07:59:48.505Z,7.40
2022-09-12T08:02:17.097Z,7.88
2022-09-12T08:04:45.522Z,9.50
2022-09-12T08:07:13.235Z,8.30
2022-09-12T08:09:40.915Z,6.97
2022-09-12T08:12:08.603Z,8.98
2022-09-12T08:14:36.403Z,3.92
2022-09-12T08:17:04.103Z,5.80
2022-09-12T08:19:31.958Z,4.72
2022-09-12T08:21:59.639Z,5.40
2022-09-12T08:24:27.898Z,6.93
2022-09-12T08:26:56.895Z,5.43
2022-09-12T08:29:24.606Z,7.97
2022-09-12T08:31:56.994Z,8.20
2022-09-12T08:34:26.230Z,7.72
2022-09-12T08:39:25.776Z,4.43
2022-09-12T08:44:47.650Z,3.10
2022-09-12T08:47:27.518Z,6.05
2022-09-12T08:50:10.309Z,10.50
2022-09-12T08:52:54.760Z,7.88
2022-09-12T08:55:53.301Z,5.35
2022-09-12T08:58:24.878Z,6.15
2022-09-12T09:01:18.207Z,6.10
2022-09-12T09:03:51.126Z,7.25
2022-09-12T09:06:47.239Z,4.40
2022-09-12T09:09:32.551Z,7.28
2022-09-12T09:12:05.017Z,6.93
2022-09-12T09:14:55.439Z,6.10
2022-09-12T09:17:43.402Z,5.68
2022-09-12T09:21:03.929Z,4.47
2022-09-12T09:23:44.692Z,4.93
2022-09-12T09:26:56.590Z,3.88
2022-09-12T09:29:38.232Z,7.82
2022-09-12T09:32:18.874Z,5.45
2022-09-12T09:34:46.638Z,5.82
2022-09-12T09:37:21.202Z,4.55
2022-09-12T09:40:18.328Z,4.53
2022-09-12T09:43:03.619Z,3.88
2022-09-12T09:45:31.959Z,6.97
2022-09-12T09:48:20.849Z,7.43
2022-09-12T09:50:49.620Z,7.93
2022-09-12T09:53:32.436Z,4.90
2022-09-12T09:56:03.956Z,5.47
2022-09-12T09:58:36.375Z,6.68
2022-09-12T10:01:16.949Z,5.60
2022-09-12T10:03:53.753Z,6.18
2022-09-12T10:06:36.313Z,2.85
2022-09-12T10:09:19.174Z,3.70
2022-09-12T10:11:48.732Z,6.40
2022-09-12T10:14:38.949Z,7.43
2022-09-12T10:17:47.249Z,5.45
2022-09-12T10:20:41.608Z,7.07
2022-09-12T10:23:19.722Z,5.05
2022-09-12T10:25:49.208Z,3.67
2022-09-12T10:28:31.866Z,6.18
2022-09-12T10:31:02.770Z,10.18
2022-09-12T10:33:32.459Z,8.60
2022-09-12T10:36:00.931Z,4.38
2022-09-12T10:38:34.758Z,6.80
2022-09-12T10:41:10.933Z,7.47
2022-09-12T10:43:42.573Z,8.77
2022-09-12T10:46:16.484Z,8.63
2022-09-12T10:48:46.545Z,6.05
2022-09-12T10:51:26.353Z,6.45
2022-09-12T10:56:58.470Z,4.85
2022-09-12T10:59:57.242Z,5.63
2022-09-12T11:02:34.422Z,5.15
2022-09-12T11:05:14.171Z,4.00
2022-09-12T11:07:49.142Z,6.28
2022-09-12T11:10:44.596Z,3.50
2022-09-12T11:13:49.030Z,1.55
2022-09-12T11:16:31.677Z,4.20
2022-09-12T11:19:18.614Z,3.72
2022-09-12T11:22:09.548Z,5.40
2022-09-12T11:25:12.071Z,5.50
2022-09-12T11:27:52.246Z,3.65
2022-09-12T11:30:20.087Z,8.00
2022-09-12T11:33:06.458Z,6.57
2022-09-12T11:35:43.103Z,5.03
2022-09-12T11:38:18.035Z,4.78
2022-09-12T11:41:08.142Z,5.43
2022-09-12T11:44:21.416Z,5.32
2022-09-12T11:46:52.117Z,4.97
2022-09-12T11:49:37.214Z,5.80
2022-09-12T11:52:14.520Z,5.43
2022-09-12T11:54:53.847Z,5.05
2022-09-12T11:57:54.449Z,3.88
2022-09-12T12:00:31.801Z,5.28
2022-09-12T12:03:09.954Z,5.78
2022-09-12T12:06:01.292Z,3.67
2022-09-12T12:08:39.516Z,4.97
2022-09-12T12:11:08.709Z,4.18
2022-09-12T12:13:40.541Z,4.38
2022-09-12T12:16:08.378Z,5.05
2022-09-12T12:18:43.576Z,3.45
2022-09-12T12:21:29.803Z,3.17
2022-09-12T12:24:10.168Z,5.10
2022-09-12T12:26:41.007Z,2.30
2022-09-12T12:29:13.422Z,4.72
2022-09-12T12:32:23.507Z,5.53
2022-09-12T12:35:04.738Z,7.47
2022-09-12T12:37:44.679Z,3.08
2022-09-12T12:40:26.938Z,3.92
2022-09-12T12:43:04.368Z,5.60
2022-09-12T12:45:35.821Z,4.32
2022-09-12T12:48:15.712Z,7.53
2022-09-12T12:50:45.628Z,2.63
2022-09-12T12:53:26.014Z,3.70
2022-09-12T12:55:57.282Z,6.30
2022-09-12T12:58:38.704Z,3.63
2022-09-12T13:01:11.905Z,5.53
2022-09-12T13:03:54.624Z,4.78
2022-09-12T13:06:37.406Z,5.95
2022-09-12T13:09:07.499Z,5.68
2022-09-12T13:11:41.950Z,4.93
2022-09-12T13:14:37.197Z,5.07
2022-09-12T13:17:13.375Z,5.35
2022-09-12T13:19:44.789Z,3.08
2022-09-12T13:22:15.814Z,4.53
2022-09-12T13:24:52.237Z,6.85
2022-09-12T13:27:25.579Z,1.77
2022-09-12T13:30:13.749Z,5.57
2022-09-12T13:32:43.294Z,6.45
2022-09-12T13:35:28.280Z,1.58
2022-09-12T13:38:26.387Z,4.10
2022-09-12T13:41:21.824Z,3.47
2022-09-12T13:43:50.133Z,4.05
2022-09-12T13:46:28.172Z,5.32
2022-09-12T13:49:01.059Z,3.25
2022-09-12T13:51:32.559Z,5.70
2022-09-12T13:54:06.007Z,2.35
2022-09-12T13:56:46.617Z,3.20
2022-09-12T14:01:44.269Z,4.60
2022-09-12T14:04:43.383Z,4.80
2022-09-12T14:07:21.132Z,2.30
2022-09-12T14:09:57.909Z,2.80
2022-09-12T14:12:36.361Z,2.72
2022-09-12T14:15:04.679Z,6.03
2022-09-12T14:17:38.659Z,5.88
2022-09-12T14:20:18.592Z,1.70
2022-09-12T14:22:53.323Z,4.35
2022-09-12T14:25:24.532Z,4.07
2022-09-12T14:27:58.001Z,4.97
2022-09-12T14:30:30.795Z,3.53
2022-09-12T14:33:10.639Z,2.90
2022-09-12T14:35:43.535Z,5.00
2022-09-12T14:38:17.842Z,5.35
2022-09-12T14:41:09.347Z,6.35
2022-09-12T14:43:48.303Z,4.53
2022-09-12T14:46:24.573Z,1.90
2022-09-12T14:48:58.233Z,3.30
2022-09-12T14:51:35.640Z,2.65
2022-09-12T14:54:06.936Z,2.85
2022-09-12T14:56:41.334Z,7.47
2022-09-12T14:59:34.468Z,4.90
2022-09-12T15:02:35.763Z,2.75
2022-09-12T15:05:31.429Z,7.65
2022-09-12T15:08:01.280Z,4.85
2022-09-12T15:10:38.027Z,3.78
2022-09-12T15:13:14.368Z,4.05
2022-09-12T15:15:44.701Z,2.25
2022-09-12T15:18:13.825Z,2.58
2022-09-12T15:20:43.430Z,1.63
2022-09-12T15:23:33.174Z,6.65
2022-09-12T15:26:05.272Z,5.85
2022-09-12T15:28:34.580Z,6.32
2022-09-12T15:31:08.157Z,5.85
2022-09-12T15:33:35.988Z,5.28
2022-09-12T15:36:03.727Z,4.90
2022-09-12T15:38:31.919Z,5.00
2022-09-12T15:41:00.816Z,4.57
2022-09-12T15:43:44.314Z,4.78
2022-09-12T15:46:25.321Z,3.67
2022-09-12T15:51:36.784Z,2.70
2022-09-12T15:54:07.017Z,3.95
2022-09-12T15:56:35.818Z,2.65
2022-09-12T15:59:08.948Z,5.82
2022-09-12T16:01:36.868Z,6.53
2022-09-12T16:04:22.085Z,4.07
2022-09-12T16:06:54.024Z,3.80
2022-09-12T16:09:24.411Z,7.70
2022-09-12T16:11:52.599Z,5.68
2022-09-12T16:14:21.804Z,3.93
2022-09-12T16:17:01.841Z,3.38
2022-09-12T16:19:30.252Z,4.57
2022-09-12T16:21:57.929Z,4.25
2022-09-12T16:24:26.914Z,6.68
2022-09-12T16:27:00.996Z,5.57
2022-09-12T16:29:29.060Z,9.70
2022-09-12T16:31:57.797Z,2.95
2022-09-12T16:34:25.457Z,4.50
2022-09-12T16:36:53.188Z,4.65
2022-09-12T16:39:23.858Z,3.97
2022-09-12T16:41:54.270Z,3.92
2022-09-12T16:44:21.967Z,3.63
2022-09-12T16:46:50.806Z,4.72
2022-09-12T16:49:18.449Z,2.50
2022-09-12T16:51:47.604Z,3.88
2022-09-12T16:54:17.316Z,4.82
2022-09-12T16:56:45.183Z,9.80
2022-09-12T16:59:16.344Z,6.50
2022-09-12T17:01:45.258Z,3.33
2022-09-12T17:04:13.964Z,2.38
2022-09-12T17:06:42.681Z,3.47
2022-09-12T17:09:16.345Z,6.43
2022-09-12T17:11:52.974Z,5.90
2022-09-12T17:14:20.881Z,4.78
2022-09-12T17:16:51.895Z,7.40
2022-09-12T17:19:30.062Z,3.47
2022-09-12T17:21:58.354Z,3.03
2022-09-12T17:24:35.897Z,7.95
2022-09-12T17:27:03.647Z,2.42
2022-09-12T17:29:31.232Z,4.78
2022-09-12T17:31:59.250Z,9.27
2022-09-12T17:34:29.949Z,5.15
2022-09-12T17:36:57.523Z,8.75
2022-09-12T17:39:25.216Z,4.20
2022-09-12T17:41:54.694Z,6.50
2022-09-12T17:44:24.456Z,5.00
2022-09-12T17:46:52.187Z,4.13
2022-09-12T17:49:22.272Z,4.28
2022-09-12T17:51:52.799Z,4.30
2022-09-12T17:54:22.290Z,4.53
2022-09-12T17:56:51.321Z,2.57
2022-09-12T17:59:21.767Z,6.22
2022-09-12T18:02:09.223Z,6.70
2022-09-12T18:04:37.540Z,4.05
2022-09-12T18:07:06.058Z,7.30
2022-09-12T18:09:34.318Z,8.32
2022-09-12T18:12:02.375Z,8.32
2022-09-12T18:14:30.323Z,5.05
2022-09-12T18:16:58.156Z,3.47
2022-09-12T18:19:27.566Z,7.25
2022-09-12T18:21:56.117Z,7.60
2022-09-12T18:24:24.328Z,7.45
2022-09-12T18:26:51.936Z,3.65
2022-09-12T18:29:20.145Z,9.10
2022-09-12T18:31:48.098Z,7.60
2022-09-12T18:34:17.120Z,8.65
2022-09-12T18:36:47.309Z,6.32
2022-09-12T18:39:17.974Z,4.43
2022-09-12T18:41:53.254Z,11.55
2022-09-12T18:44:23.322Z,6.45
2022-09-12T18:46:51.419Z,6.88
2022-09-12T18:49:24.466Z,6.38
2022-09-12T18:51:52.054Z,8.18
2022-09-12T18:54:20.676Z,7.65
2022-09-12T18:56:48.700Z,8.00
2022-09-12T18:59:18.834Z,10.85
2022-09-12T19:01:46.728Z,12.32
2022-09-12T19:04:15.019Z,7.70
2022-09-12T19:06:45.509Z,11.48
2022-09-12T19:09:20.752Z,14.32
2022-09-12T19:11:49.863Z,9.10
2022-09-12T19:14:24.151Z,8.93
2022-09-12T19:16:53.642Z,9.52
2022-09-12T19:19:21.710Z,9.05
2022-09-12T19:21:52.583Z,7.78
2022-09-12T19:24:21.894Z,6.95
2022-09-12T19:26:51.753Z,6.65
2022-09-12T19:29:19.326Z,5.10
2022-09-12T19:31:47.166Z,5.20
2022-09-12T19:34:15.482Z,7.35
2022-09-12T19:36:49.390Z,6.60
2022-09-12T19:39:19.806Z,10.27
2022-09-12T19:41:48.260Z,7.75
2022-09-12T19:44:19.344Z,6.78
2022-09-12T19:46:48.937Z,5.95
2022-09-12T19:49:17.137Z,8.30
2022-09-12T19:51:47.871Z,10.05
2022-09-12T19:54:17.868Z,10.95
2022-09-12T19:56:46.872Z,14.10
2022-09-12T19:59:14.542Z,19.85
2022-09-12T20:01:42.348Z,12.70
2022-09-12T20:04:10.208Z,12.77
2022-09-12T20:06:38.216Z,9.13
2022-09-12T20:09:10.417Z,12.82
2022-09-12T20:11:39.248Z,5.93
2022-09-12T20:14:07.641Z,10.73
2022-09-12T20:16:36.002Z,8.15
2022-09-12T20:19:07.272Z,6.45
2022-09-12T20:21:37.040Z,7.00
2022-09-12T20:24:07.574Z,10.52
2022-09-12T20:26:38.253Z,11.48
2022-09-12T20:29:07.371Z,10.18
2022-09-12T20:31:40.438Z,8.60
2022-09-12T20:34:17.796Z,8.35
2022-09-12T20:36:49.149Z,11.63
2022-09-12T20:39:22.299Z,11.27
2022-09-12T20:41:50.398Z,9.45
2022-09-12T20:44:18.458Z,9.07
2022-09-12T20:46:46.210Z,8.15
2022-09-12T20:49:13.996Z,12.45
2022-09-12T20:51:47.957Z,8.80
2022-09-12T20:54:16.423Z,6.72
2022-09-12T20:56:44.563Z,9.45
2022-09-12T20:59:12.929Z,8.88
2022-09-12T21:01:40.884Z,7.40
2022-09-12T21:04:11.833Z,12.88
2022-09-12T21:06:45.612Z,9.60
2022-09-12T21:09:21.168Z,8.10
2022-09-12T21:14:16.509Z,7.25
2022-09-12T21:16:49.039Z,10.52
2022-09-12T21:19:29.406Z,7.57
2022-09-12T21:22:03.771Z,10.40
2022-09-12T21:24:31.792Z,8.30
2022-09-12T21:27:04.178Z,7.28
2022-09-12T21:29:35.583Z,8.95
2022-09-12T21:32:10.005Z,8.90
2022-09-12T21:34:50.393Z,11.63
2022-09-12T21:37:21.070Z,7.65
2022-09-12T21:39:49.081Z,7.55
2022-09-12T21:42:19.431Z,7.97
2022-09-12T21:44:48.136Z,9.10
2022-09-12T21:47:16.056Z,8.93
2022-09-12T21:49:57.810Z,8.27
2022-09-12T21:52:28.147Z,6.45
2022-09-12T21:55:08.912Z,7.80
2022-09-12T21:57:36.665Z,9.40
2022-09-12T22:00:09.862Z,10.48
2022-09-12T22:02:37.529Z,8.95
2022-09-12T22:05:06.416Z,8.50
2022-09-12T22:07:40.595Z,11.68
2022-09-12T22:10:08.922Z,8.68
2022-09-12T22:12:36.690Z,6.93
2022-09-12T22:15:23.013Z,10.07
2022-09-12T22:17:54.900Z,9.45
2022-09-12T22:20:22.815Z,8.87
2022-09-12T22:23:16.275Z,10.45
2022-09-12T22:25:45.072Z,11.48
2022-09-12T22:28:13.850Z,10.52
2022-09-12T22:30:42.688Z,10.20
2022-09-12T22:33:10.297Z,11.55
2022-09-12T22:35:42.440Z,10.25
2022-09-12T22:38:11.008Z,11.05
2022-09-12T22:40:39.125Z,13.20
2022-09-12T22:43:07.045Z,11.20
2022-09-12T22:45:37.879Z,10.45
2022-09-12T22:48:09.017Z,11.15
2022-09-12T22:50:42.623Z,16.77
2022-09-12T22:53:10.299Z,13.52
2022-09-12T22:55:39.102Z,14.75
2022-09-12T22:58:06.861Z,14.50
2022-09-12T23:00:34.753Z,16.80
2022-09-12T23:03:02.577Z,14.00
2022-09-12T23:05:30.276Z,16.40
2022-09-12T23:07:58.324Z,15.65
2022-09-12T23:10:27.162Z,17.20
2022-09-12T23:12:55.455Z,14.80
2022-09-12T23:15:26.592Z,16.20
2022-09-12T23:17:56.755Z,13.57
2022-09-12T23:20:36.473Z,20.33
2022-09-12T23:23:06.711Z,15.05
2022-09-12T23:25:34.632Z,16.02
2022-09-12T23:28:05.433Z,14.20
2022-09-12T23:30:36.501Z,16.67
2022-09-12T23:33:04.409Z,19.35
2022-09-12T23:35:32.124Z,15.05
2022-09-12T23:38:00.454Z,15.73
2022-09-12T23:40:31.473Z,15.75
2022-09-12T23:42:59.259Z,15.73
2022-09-12T23:45:33.415Z,16.55
2022-09-12T23:48:01.353Z,16.35
2022-09-12T23:50:35.077Z,14.27
2022-09-12T23:53:06.482Z,16.75
2022-09-12T23:55:36.694Z,15.13
2022-09-12T23:58:07.533Z,20.30
